sensor_id;sensor_type;location;lat;lon;timestamp;temperature;humidity
19348;DHT22;9810;52.480;9.806;2023-04-25T00:01:48;8.10;99.90
19348;DHT22;9810;52.480;9.806;2023-04-25T00:04:16;8.30;99.90
19348;DHT22;9810;52.480;9.806;2023-04-25T00:06:44;7.90;99.90
19348;DHT22;9810;52.480;9.806;2023-04-25T00:09:13;7.90;99.90
19348;DHT22;9810;52.480;9.806;2023-04-25T00:11:41;8.10;99.90
19348;DHT22;9810;52.480;9.806;2023-04-25T00:14:08;8.40;99.90
19348;DHT22;9810;52.480;9.806;2023-04-25T00:16:38;8.30;99.90
19348;DHT22;9810;52.480;9.806;2023-04-25T00:19:06;8.00;99.90
19348;DHT22;9810;52.480;9.806;2023-04-25T00:21:35;8.20;99.90
19348;DHT22;9810;52.480;9.806;2023-04-25T00:24:03;8.30;99.90
19348;DHT22;9810;52.480;9.806;2023-04-25T00:26:39;8.10;99.90
19348;DHT22;9810;52.480;9.806;2023-04-25T00:29:09;7.90;99.90
19348;DHT22;9810;52.480;9.806;2023-04-25T00:31:37;8.00;99.90
19348;DHT22;9810;52.480;9.806;2023-04-25T00:34:05;8.00;99.90
19348;DHT22;9810;52.480;9.806;2023-04-25T00:36:33;8.00;99.90
19348;DHT22;9810;52.480;9.806;2023-04-25T00:39:04;8.30;99.90
19348;DHT22;9810;52.480;9.806;2023-04-25T00:41:32;8.20;99.90
19348;DHT22;9810;52.480;9.806;2023-04-25T00:44:03;8.20;99.90
19348;DHT22;9810;52.480;9.806;2023-04-25T00:46:31;8.20;99.90
19348;DHT22;9810;52.480;9.806;2023-04-25T00:48:58;8.10;99.90
19348;DHT22;9810;52.480;9.806;2023-04-25T00:51:26;8.00;99.90
19348;DHT22;9810;52.480;9.806;2023-04-25T00:53:53;8.00;99.90
19348;DHT22;9810;52.480;9.806;2023-04-25T00:56:21;8.30;99.90
19348;DHT22;9810;52.480;9.806;2023-04-25T00:58:49;8.50;99.90
19348;DHT22;9810;52.480;9.806;2023-04-25T01:01:18;8.10;99.90
19348;DHT22;9810;52.480;9.806;2023-04-25T01:03:46;7.90;99.90
19348;DHT22;9810;52.480;9.806;2023-04-25T01:06:16;8.40;99.90
19348;DHT22;9810;52.480;9.806;2023-04-25T01:08:44;8.30;99.90
19348;DHT22;9810;52.480;9.806;2023-04-25T01:11:11;8.30;99.90
19348;DHT22;9810;52.480;9.806;2023-04-25T01:13:39;8.00;99.90
19348;DHT22;9810;52.480;9.806;2023-04-25T01:16:06;8.10;99.90
19348;DHT22;9810;52.480;9.806;2023-04-25T01:18:36;8.00;99.90
19348;DHT22;9810;52.480;9.806;2023-04-25T01:21:09;8.30;99.90
19348;DHT22;9810;52.480;9.806;2023-04-25T01:23:37;8.20;99.90
19348;DHT22;9810;52.480;9.806;2023-04-25T01:26:06;8.00;99.90
19348;DHT22;9810;52.480;9.806;2023-04-25T01:31:55;8.10;99.90
19348;DHT22;9810;52.480;9.806;2023-04-25T01:34:24;8.40;99.90
19348;DHT22;9810;52.480;9.806;2023-04-25T01:36:54;8.20;99.90
19348;DHT22;9810;52.480;9.806;2023-04-25T01:39:22;8.00;99.90
19348;DHT22;9810;52.480;9.806;2023-04-25T01:41:52;8.00;99.90
19348;DHT22;9810;52.480;9.806;2023-04-25T01:44:19;8.00;99.90
19348;DHT22;9810;52.480;9.806;2023-04-25T01:46:49;8.00;99.90
19348;DHT22;9810;52.480;9.806;2023-04-25T01:49:16;7.80;99.90
19348;DHT22;9810;52.480;9.806;2023-04-25T01:51:44;7.90;99.90
19348;DHT22;9810;52.480;9.806;2023-04-25T01:54:13;8.00;99.90
19348;DHT22;9810;52.480;9.806;2023-04-25T01:56:40;7.80;99.90
19348;DHT22;9810;52.480;9.806;2023-04-25T01:59:08;7.80;99.90
19348;DHT22;9810;52.480;9.806;2023-04-25T02:01:35;7.80;99.90
19348;DHT22;9810;52.480;9.806;2023-04-25T02:04:02;8.10;99.90
19348;DHT22;9810;52.480;9.806;2023-04-25T02:06:30;7.80;99.90
19348;DHT22;9810;52.480;9.806;2023-04-25T02:08:57;7.70;99.90
19348;DHT22;9810;52.480;9.806;2023-04-25T02:14:40;7.50;99.90
19348;DHT22;9810;52.480;9.806;2023-04-25T02:17:07;7.60;99.90
19348;DHT22;9810;52.480;9.806;2023-04-25T02:19:37;7.50;99.90
19348;DHT22;9810;52.480;9.806;2023-04-25T02:22:04;7.70;99.90
19348;DHT22;9810;52.480;9.806;2023-04-25T02:24:32;7.40;99.90
19348;DHT22;9810;52.480;9.806;2023-04-25T02:27:00;7.20;99.90
19348;DHT22;9810;52.480;9.806;2023-04-25T02:29:31;7.20;99.90
19348;DHT22;9810;52.480;9.806;2023-04-25T02:32:00;7.20;99.90
19348;DHT22;9810;52.480;9.806;2023-04-25T02:34:27;7.00;99.90
19348;DHT22;9810;52.480;9.806;2023-04-25T02:36:54;7.10;99.90
19348;DHT22;9810;52.480;9.806;2023-04-25T02:39:24;7.00;99.90
19348;DHT22;9810;52.480;9.806;2023-04-25T02:41:52;7.10;99.90
19348;DHT22;9810;52.480;9.806;2023-04-25T02:44:20;7.10;99.90
19348;DHT22;9810;52.480;9.806;2023-04-25T02:46:47;7.30;99.90
19348;DHT22;9810;52.480;9.806;2023-04-25T02:49:16;7.20;99.90
19348;DHT22;9810;52.480;9.806;2023-04-25T02:51:43;7.10;99.90
19348;DHT22;9810;52.480;9.806;2023-04-25T02:54:10;7.10;99.90
19348;DHT22;9810;52.480;9.806;2023-04-25T02:56:38;7.00;99.90
19348;DHT22;9810;52.480;9.806;2023-04-25T02:59:05;7.00;99.90
19348;DHT22;9810;52.480;9.806;2023-04-25T03:01:33;6.90;99.90
19348;DHT22;9810;52.480;9.806;2023-04-25T03:04:00;6.80;99.90
19348;DHT22;9810;52.480;9.806;2023-04-25T03:06:30;6.70;99.90
19348;DHT22;9810;52.480;9.806;2023-04-25T03:08:57;6.80;99.90
19348;DHT22;9810;52.480;9.806;2023-04-25T03:48:15;6.70;99.90
19348;DHT22;9810;52.480;9.806;2023-04-25T03:50:42;6.70;99.90
19348;DHT22;9810;52.480;9.806;2023-04-25T03:53:13;6.80;99.90
19348;DHT22;9810;52.480;9.806;2023-04-25T03:55:40;6.70;99.90
19348;DHT22;9810;52.480;9.806;2023-04-25T03:58:07;6.70;99.90
19348;DHT22;9810;52.480;9.806;2023-04-25T04:00:35;6.70;99.90
19348;DHT22;9810;52.480;9.806;2023-04-25T04:03:03;6.60;99.90
19348;DHT22;9810;52.480;9.806;2023-04-25T04:05:32;6.70;99.90
19348;DHT22;9810;52.480;9.806;2023-04-25T04:07:59;6.70;99.90
19348;DHT22;9810;52.480;9.806;2023-04-25T04:10:27;6.70;99.90
19348;DHT22;9810;52.480;9.806;2023-04-25T04:12:54;6.70;99.90
19348;DHT22;9810;52.480;9.806;2023-04-25T04:15:22;6.70;99.90
19348;DHT22;9810;52.480;9.806;2023-04-25T04:17:49;6.70;99.90
19348;DHT22;9810;52.480;9.806;2023-04-25T04:20:17;6.70;99.90
19348;DHT22;9810;52.480;9.806;2023-04-25T04:22:46;6.70;99.90
19348;DHT22;9810;52.480;9.806;2023-04-25T04:25:15;6.60;99.90
19348;DHT22;9810;52.480;9.806;2023-04-25T04:27:42;6.70;99.90
19348;DHT22;9810;52.480;9.806;2023-04-25T04:30:10;6.80;99.90
19348;DHT22;9810;52.480;9.806;2023-04-25T04:32:38;6.70;99.90
19348;DHT22;9810;52.480;9.806;2023-04-25T04:35:06;6.70;99.90
19348;DHT22;9810;52.480;9.806;2023-04-25T04:37:34;6.70;99.90
19348;DHT22;9810;52.480;9.806;2023-04-25T04:40:05;6.70;99.90
19348;DHT22;9810;52.480;9.806;2023-04-25T04:42:33;6.60;99.90
19348;DHT22;9810;52.480;9.806;2023-04-25T04:45:04;6.70;99.90
19348;DHT22;9810;52.480;9.806;2023-04-25T04:47:31;6.70;99.90
19348;DHT22;9810;52.480;9.806;2023-04-25T04:49:59;6.70;99.90
19348;DHT22;9810;52.480;9.806;2023-04-25T04:52:26;6.70;99.90
19348;DHT22;9810;52.480;9.806;2023-04-25T04:54:54;6.80;99.90
19348;DHT22;9810;52.480;9.806;2023-04-25T04:57:23;6.70;99.90
19348;DHT22;9810;52.480;9.806;2023-04-25T04:59:51;6.70;99.90
19348;DHT22;9810;52.480;9.806;2023-04-25T05:02:21;6.70;99.90
19348;DHT22;9810;52.480;9.806;2023-04-25T05:04:48;6.80;99.90
19348;DHT22;9810;52.480;9.806;2023-04-25T05:07:17;6.80;99.90
19348;DHT22;9810;52.480;9.806;2023-04-25T05:09:44;6.70;99.90
19348;DHT22;9810;52.480;9.806;2023-04-25T05:12:14;6.70;99.90
19348;DHT22;9810;52.480;9.806;2023-04-25T05:14:43;6.70;99.90
19348;DHT22;9810;52.480;9.806;2023-04-25T05:17:11;6.70;99.90
19348;DHT22;9810;52.480;9.806;2023-04-25T05:19:39;6.70;99.90
19348;DHT22;9810;52.480;9.806;2023-04-25T05:22:06;6.80;99.90
19348;DHT22;9810;52.480;9.806;2023-04-25T05:24:33;6.90;99.90
19348;DHT22;9810;52.480;9.806;2023-04-25T05:27:01;7.00;99.90
19348;DHT22;9810;52.480;9.806;2023-04-25T05:29:28;6.90;99.90
19348;DHT22;9810;52.480;9.806;2023-04-25T05:31:57;6.90;99.90
19348;DHT22;9810;52.480;9.806;2023-04-25T05:34:24;7.10;99.90
19348;DHT22;9810;52.480;9.806;2023-04-25T05:36:52;7.20;99.90
19348;DHT22;9810;52.480;9.806;2023-04-25T05:39:18;7.20;99.90
19348;DHT22;9810;52.480;9.806;2023-04-25T05:41:46;7.10;99.90
19348;DHT22;9810;52.480;9.806;2023-04-25T05:44:13;7.10;99.90
19348;DHT22;9810;52.480;9.806;2023-04-25T05:46:41;7.30;99.90
19348;DHT22;9810;52.480;9.806;2023-04-25T05:49:10;7.60;99.90
19348;DHT22;9810;52.480;9.806;2023-04-25T05:51:37;7.70;99.90
19348;DHT22;9810;52.480;9.806;2023-04-25T05:54:05;7.70;99.90
19348;DHT22;9810;52.480;9.806;2023-04-25T05:56:32;7.90;99.90
19348;DHT22;9810;52.480;9.806;2023-04-25T05:59:00;8.00;99.90
19348;DHT22;9810;52.480;9.806;2023-04-25T06:01:27;8.00;99.90
19348;DHT22;9810;52.480;9.806;2023-04-25T06:03:55;8.20;99.90
19348;DHT22;9810;52.480;9.806;2023-04-25T06:06:24;8.50;99.90
19348;DHT22;9810;52.480;9.806;2023-04-25T06:08:52;8.20;99.90
19348;DHT22;9810;52.480;9.806;2023-04-25T06:11:22;8.10;99.90
19348;DHT22;9810;52.480;9.806;2023-04-25T06:13:51;8.20;99.90
19348;DHT22;9810;52.480;9.806;2023-04-25T06:16:21;8.20;99.90
19348;DHT22;9810;52.480;9.806;2023-04-25T06:18:51;8.00;99.90
19348;DHT22;9810;52.480;9.806;2023-04-25T06:21:19;8.10;99.90
19348;DHT22;9810;52.480;9.806;2023-04-25T06:23:47;8.20;99.90
19348;DHT22;9810;52.480;9.806;2023-04-25T06:26:15;8.00;99.90
19348;DHT22;9810;52.480;9.806;2023-04-25T06:28:42;8.30;99.90
19348;DHT22;9810;52.480;9.806;2023-04-25T06:31:09;8.00;99.90
19348;DHT22;9810;52.480;9.806;2023-04-25T06:33:36;8.30;99.90
19348;DHT22;9810;52.480;9.806;2023-04-25T06:36:04;8.50;99.90
19348;DHT22;9810;52.480;9.806;2023-04-25T06:38:31;8.60;99.90
19348;DHT22;9810;52.480;9.806;2023-04-25T06:41:02;8.50;99.90
19348;DHT22;9810;52.480;9.806;2023-04-25T06:43:29;8.80;99.90
19348;DHT22;9810;52.480;9.806;2023-04-25T06:45:58;8.50;99.90
19348;DHT22;9810;52.480;9.806;2023-04-25T06:48:28;8.80;99.90
19348;DHT22;9810;52.480;9.806;2023-04-25T06:50:55;8.40;99.90
19348;DHT22;9810;52.480;9.806;2023-04-25T06:53:22;8.80;99.90
19348;DHT22;9810;52.480;9.806;2023-04-25T06:55:52;9.30;99.90
19348;DHT22;9810;52.480;9.806;2023-04-25T06:58:21;9.30;99.90
19348;DHT22;9810;52.480;9.806;2023-04-25T07:00:49;9.30;99.90
19348;DHT22;9810;52.480;9.806;2023-04-25T07:03:17;9.10;99.90
19348;DHT22;9810;52.480;9.806;2023-04-25T07:05:45;8.80;99.90
19348;DHT22;9810;52.480;9.806;2023-04-25T07:08:12;8.90;99.90
19348;DHT22;9810;52.480;9.806;2023-04-25T07:10:40;8.80;99.90
19348;DHT22;9810;52.480;9.806;2023-04-25T07:13:10;9.00;99.90
19348;DHT22;9810;52.480;9.806;2023-04-25T07:15:39;8.90;99.90
19348;DHT22;9810;52.480;9.806;2023-04-25T07:18:07;8.40;99.90
19348;DHT22;9810;52.480;9.806;2023-04-25T07:20:35;8.40;99.90
19348;DHT22;9810;52.480;9.806;2023-04-25T07:23:02;8.60;99.90
19348;DHT22;9810;52.480;9.806;2023-04-25T07:25:29;8.60;99.90
19348;DHT22;9810;52.480;9.806;2023-04-25T07:27:57;8.30;99.90
19348;DHT22;9810;52.480;9.806;2023-04-25T07:30:24;8.60;99.90
19348;DHT22;9810;52.480;9.806;2023-04-25T07:32:53;8.60;99.90
19348;DHT22;9810;52.480;9.806;2023-04-25T07:35:21;8.70;99.90
19348;DHT22;9810;52.480;9.806;2023-04-25T07:37:48;8.70;99.90
19348;DHT22;9810;52.480;9.806;2023-04-25T07:40:16;8.70;99.90
19348;DHT22;9810;52.480;9.806;2023-04-25T07:42:43;8.60;99.90
19348;DHT22;9810;52.480;9.806;2023-04-25T07:45:11;8.40;99.90
19348;DHT22;9810;52.480;9.806;2023-04-25T07:47:38;8.60;99.90
19348;DHT22;9810;52.480;9.806;2023-04-25T07:50:10;10.40;99.90
19348;DHT22;9810;52.480;9.806;2023-04-25T07:52:37;9.40;99.90
19348;DHT22;9810;52.480;9.806;2023-04-25T07:55:05;9.20;99.90
19348;DHT22;9810;52.480;9.806;2023-04-25T07:57:33;9.30;99.90
19348;DHT22;9810;52.480;9.806;2023-04-25T08:00:00;9.00;99.90
19348;DHT22;9810;52.480;9.806;2023-04-25T08:02:27;9.50;99.90
19348;DHT22;9810;52.480;9.806;2023-04-25T08:04:54;9.60;99.90
19348;DHT22;9810;52.480;9.806;2023-04-25T08:07:24;9.50;99.90
19348;DHT22;9810;52.480;9.806;2023-04-25T08:09:52;9.50;99.90
19348;DHT22;9810;52.480;9.806;2023-04-25T08:12:19;10.70;99.90
19348;DHT22;9810;52.480;9.806;2023-04-25T08:14:46;11.50;99.90
19348;DHT22;9810;52.480;9.806;2023-04-25T08:17:14;11.20;99.90
19348;DHT22;9810;52.480;9.806;2023-04-25T08:19:41;12.00;99.90
19348;DHT22;9810;52.480;9.806;2023-04-25T08:22:09;12.10;99.90
19348;DHT22;9810;52.480;9.806;2023-04-25T08:24:38;12.10;99.90
19348;DHT22;9810;52.480;9.806;2023-04-25T08:27:05;10.80;99.90
19348;DHT22;9810;52.480;9.806;2023-04-25T08:29:33;10.80;99.90
19348;DHT22;9810;52.480;9.806;2023-04-25T08:32:02;10.60;99.90
19348;DHT22;9810;52.480;9.806;2023-04-25T08:34:30;10.80;99.90
19348;DHT22;9810;52.480;9.806;2023-04-25T08:36:57;10.90;99.90
19348;DHT22;9810;52.480;9.806;2023-04-25T08:39:31;11.50;99.90
19348;DHT22;9810;52.480;9.806;2023-04-25T08:42:00;12.70;99.90
19348;DHT22;9810;52.480;9.806;2023-04-25T08:44:29;12.90;99.90
19348;DHT22;9810;52.480;9.806;2023-04-25T08:46:57;13.10;99.90
19348;DHT22;9810;52.480;9.806;2023-04-25T08:49:25;13.10;99.90
19348;DHT22;9810;52.480;9.806;2023-04-25T08:51:53;12.70;99.90
19348;DHT22;9810;52.480;9.806;2023-04-25T08:54:26;12.10;99.90
19348;DHT22;9810;52.480;9.806;2023-04-25T08:56:55;11.40;99.90
19348;DHT22;9810;52.480;9.806;2023-04-25T08:59:25;11.20;99.90
19348;DHT22;9810;52.480;9.806;2023-04-25T09:01:52;10.50;99.90
19348;DHT22;9810;52.480;9.806;2023-04-25T09:04:20;10.70;99.90
19348;DHT22;9810;52.480;9.806;2023-04-25T09:06:48;11.20;99.90
19348;DHT22;9810;52.480;9.806;2023-04-25T09:09:16;11.70;99.90
19348;DHT22;9810;52.480;9.806;2023-04-25T09:11:43;12.10;99.90
19348;DHT22;9810;52.480;9.806;2023-04-25T09:14:14;11.70;99.90
19348;DHT22;9810;52.480;9.806;2023-04-25T09:16:59;12.10;99.90
19348;DHT22;9810;52.480;9.806;2023-04-25T09:19:29;12.60;99.90
19348;DHT22;9810;52.480;9.806;2023-04-25T09:21:58;12.50;99.90
19348;DHT22;9810;52.480;9.806;2023-04-25T09:24:35;12.10;99.90
19348;DHT22;9810;52.480;9.806;2023-04-25T09:27:08;12.10;99.90
19348;DHT22;9810;52.480;9.806;2023-04-25T09:29:37;11.00;99.90
19348;DHT22;9810;52.480;9.806;2023-04-25T09:32:16;11.50;99.90
19348;DHT22;9810;52.480;9.806;2023-04-25T09:34:46;12.20;99.90
19348;DHT22;9810;52.480;9.806;2023-04-25T09:37:18;13.30;99.90
19348;DHT22;9810;52.480;9.806;2023-04-25T09:39:47;13.30;99.90
19348;DHT22;9810;52.480;9.806;2023-04-25T09:42:14;12.70;99.90
19348;DHT22;9810;52.480;9.806;2023-04-25T09:44:43;11.30;99.90
19348;DHT22;9810;52.480;9.806;2023-04-25T09:47:15;11.20;99.90
19348;DHT22;9810;52.480;9.806;2023-04-25T09:49:43;11.40;99.90
19348;DHT22;9810;52.480;9.806;2023-04-25T09:52:14;11.70;99.90
19348;DHT22;9810;52.480;9.806;2023-04-25T09:54:42;11.10;99.90
19348;DHT22;9810;52.480;9.806;2023-04-25T09:57:11;10.90;99.90
19348;DHT22;9810;52.480;9.806;2023-04-25T09:59:42;11.10;99.90
19348;DHT22;9810;52.480;9.806;2023-04-25T10:02:10;10.70;99.90
19348;DHT22;9810;52.480;9.806;2023-04-25T10:04:41;10.90;99.90
19348;DHT22;9810;52.480;9.806;2023-04-25T10:07:09;10.90;99.90
19348;DHT22;9810;52.480;9.806;2023-04-25T10:09:40;11.60;99.90
19348;DHT22;9810;52.480;9.806;2023-04-25T10:12:08;11.70;99.90
19348;DHT22;9810;52.480;9.806;2023-04-25T10:14:36;11.80;99.90
19348;DHT22;9810;52.480;9.806;2023-04-25T10:17:05;11.00;99.90
19348;DHT22;9810;52.480;9.806;2023-04-25T10:19:34;11.10;99.90
19348;DHT22;9810;52.480;9.806;2023-04-25T10:22:08;10.80;99.90
19348;DHT22;9810;52.480;9.806;2023-04-25T10:24:39;9.90;99.90
19348;DHT22;9810;52.480;9.806;2023-04-25T10:27:07;9.80;99.90
19348;DHT22;9810;52.480;9.806;2023-04-25T10:29:35;10.10;99.90
19348;DHT22;9810;52.480;9.806;2023-04-25T10:32:03;9.80;99.90
19348;DHT22;9810;52.480;9.806;2023-04-25T10:34:41;9.90;99.90
19348;DHT22;9810;52.480;9.806;2023-04-25T10:37:10;9.40;99.90
19348;DHT22;9810;52.480;9.806;2023-04-25T10:39:39;9.40;99.90
19348;DHT22;9810;52.480;9.806;2023-04-25T10:42:07;9.30;99.90
19348;DHT22;9810;52.480;9.806;2023-04-25T10:44:37;8.90;99.90
19348;DHT22;9810;52.480;9.806;2023-04-25T10:47:06;8.80;99.90
19348;DHT22;9810;52.480;9.806;2023-04-25T10:49:36;8.90;99.90
19348;DHT22;9810;52.480;9.806;2023-04-25T10:52:18;9.40;99.90
19348;DHT22;9810;52.480;9.806;2023-04-25T10:54:51;9.40;99.90
19348;DHT22;9810;52.480;9.806;2023-04-25T10:57:33;9.70;99.90
19348;DHT22;9810;52.480;9.806;2023-04-25T11:00:08;10.30;99.90
19348;DHT22;9810;52.480;9.806;2023-04-25T11:02:43;10.40;99.90
19348;DHT22;9810;52.480;9.806;2023-04-25T11:05:27;10.90;99.90
19348;DHT22;9810;52.480;9.806;2023-04-25T11:08:11;10.80;99.90
19348;DHT22;9810;52.480;9.806;2023-04-25T11:10:40;11.30;99.90
19348;DHT22;9810;52.480;9.806;2023-04-25T11:13:10;11.20;99.90
19348;DHT22;9810;52.480;9.806;2023-04-25T11:15:53;12.10;99.90
19348;DHT22;9810;52.480;9.806;2023-04-25T11:18:20;12.20;99.90
19348;DHT22;9810;52.480;9.806;2023-04-25T11:20:48;12.40;99.90
19348;DHT22;9810;52.480;9.806;2023-04-25T11:23:18;12.20;99.90
19348;DHT22;9810;52.480;9.806;2023-04-25T11:25:47;11.60;99.90
19348;DHT22;9810;52.480;9.806;2023-04-25T11:28:23;10.80;99.90
19348;DHT22;9810;52.480;9.806;2023-04-25T11:30:50;10.60;99.90
19348;DHT22;9810;52.480;9.806;2023-04-25T11:33:25;10.20;99.90
19348;DHT22;9810;52.480;9.806;2023-04-25T11:35:54;10.50;99.90
19348;DHT22;9810;52.480;9.806;2023-04-25T11:38:24;10.00;99.90
19348;DHT22;9810;52.480;9.806;2023-04-25T11:40:54;9.50;99.90
19348;DHT22;9810;52.480;9.806;2023-04-25T11:43:25;9.20;99.90
19348;DHT22;9810;52.480;9.806;2023-04-25T11:45:52;9.30;99.90
19348;DHT22;9810;52.480;9.806;2023-04-25T11:48:20;9.20;99.90
19348;DHT22;9810;52.480;9.806;2023-04-25T11:50:47;9.00;99.90
19348;DHT22;9810;52.480;9.806;2023-04-25T11:53:17;9.00;99.90
19348;DHT22;9810;52.480;9.806;2023-04-25T11:55:46;9.20;99.90
19348;DHT22;9810;52.480;9.806;2023-04-25T11:58:14;9.50;99.90
19348;DHT22;9810;52.480;9.806;2023-04-25T12:00:42;9.40;99.90
19348;DHT22;9810;52.480;9.806;2023-04-25T12:03:11;9.90;99.90
19348;DHT22;9810;52.480;9.806;2023-04-25T12:05:41;10.80;99.90
19348;DHT22;9810;52.480;9.806;2023-04-25T12:08:11;11.10;99.90
19348;DHT22;9810;52.480;9.806;2023-04-25T12:10:43;11.30;99.90
19348;DHT22;9810;52.480;9.806;2023-04-25T12:13:28;11.40;99.90
19348;DHT22;9810;52.480;9.806;2023-04-25T12:15:55;11.90;99.90
19348;DHT22;9810;52.480;9.806;2023-04-25T12:18:24;11.80;99.90
19348;DHT22;9810;52.480;9.806;2023-04-25T12:20:53;12.10;99.90
19348;DHT22;9810;52.480;9.806;2023-04-25T12:23:25;12.50;99.90
19348;DHT22;9810;52.480;9.806;2023-04-25T12:25:53;12.20;99.90
19348;DHT22;9810;52.480;9.806;2023-04-25T12:28:22;12.00;99.90
19348;DHT22;9810;52.480;9.806;2023-04-25T12:30:58;12.00;99.90
19348;DHT22;9810;52.480;9.806;2023-04-25T12:33:27;11.70;99.90
19348;DHT22;9810;52.480;9.806;2023-04-25T12:35:55;11.00;99.90
19348;DHT22;9810;52.480;9.806;2023-04-25T12:38:24;10.60;99.90
19348;DHT22;9810;52.480;9.806;2023-04-25T12:40:51;10.60;99.90
19348;DHT22;9810;52.480;9.806;2023-04-25T12:43:19;10.00;99.90
19348;DHT22;9810;52.480;9.806;2023-04-25T12:45:47;10.00;99.90
19348;DHT22;9810;52.480;9.806;2023-04-25T12:48:17;9.90;99.90
19348;DHT22;9810;52.480;9.806;2023-04-25T12:50:45;10.00;99.90
19348;DHT22;9810;52.480;9.806;2023-04-25T12:53:14;10.00;99.90
19348;DHT22;9810;52.480;9.806;2023-04-25T12:55:42;10.10;99.90
19348;DHT22;9810;52.480;9.806;2023-04-25T12:58:11;10.10;99.90
19348;DHT22;9810;52.480;9.806;2023-04-25T13:00:38;10.20;99.90
19348;DHT22;9810;52.480;9.806;2023-04-25T13:03:09;10.20;99.90
19348;DHT22;9810;52.480;9.806;2023-04-25T13:05:39;10.40;99.90
19348;DHT22;9810;52.480;9.806;2023-04-25T13:08:06;10.50;99.90
19348;DHT22;9810;52.480;9.806;2023-04-25T13:10:37;10.40;99.90
19348;DHT22;9810;52.480;9.806;2023-04-25T13:13:04;10.50;99.90
19348;DHT22;9810;52.480;9.806;2023-04-25T13:15:32;10.40;99.90
19348;DHT22;9810;52.480;9.806;2023-04-25T13:17:59;10.20;99.90
19348;DHT22;9810;52.480;9.806;2023-04-25T13:20:26;10.20;99.90
19348;DHT22;9810;52.480;9.806;2023-04-25T13:22:55;10.40;99.90
19348;DHT22;9810;52.480;9.806;2023-04-25T13:25:22;10.40;99.90
19348;DHT22;9810;52.480;9.806;2023-04-25T13:27:50;10.30;99.90
19348;DHT22;9810;52.480;9.806;2023-04-25T13:30:18;10.20;99.90
19348;DHT22;9810;52.480;9.806;2023-04-25T13:32:45;10.30;99.90
19348;DHT22;9810;52.480;9.806;2023-04-25T13:35:13;10.30;99.90
19348;DHT22;9810;52.480;9.806;2023-04-25T13:37:41;10.80;99.90
19348;DHT22;9810;52.480;9.806;2023-04-25T13:40:11;11.50;99.90
19348;DHT22;9810;52.480;9.806;2023-04-25T13:42:38;11.70;99.90
19348;DHT22;9810;52.480;9.806;2023-04-25T13:45:07;11.40;99.90
19348;DHT22;9810;52.480;9.806;2023-04-25T13:47:34;10.80;99.90
19348;DHT22;9810;52.480;9.806;2023-04-25T13:50:02;10.70;99.90
19348;DHT22;9810;52.480;9.806;2023-04-25T13:52:30;10.30;99.90
19348;DHT22;9810;52.480;9.806;2023-04-25T13:54:58;9.70;99.90
19348;DHT22;9810;52.480;9.806;2023-04-25T13:57:28;8.90;99.90
19348;DHT22;9810;52.480;9.806;2023-04-25T13:59:56;8.60;99.90
19348;DHT22;9810;52.480;9.806;2023-04-25T14:02:23;8.10;99.90
19348;DHT22;9810;52.480;9.806;2023-04-25T14:04:51;8.30;99.90
19348;DHT22;9810;52.480;9.806;2023-04-25T14:07:18;8.30;99.90
19348;DHT22;9810;52.480;9.806;2023-04-25T14:09:46;8.40;99.90
19348;DHT22;9810;52.480;9.806;2023-04-25T14:12:15;8.60;99.90
19348;DHT22;9810;52.480;9.806;2023-04-25T14:14:44;8.60;99.90
19348;DHT22;9810;52.480;9.806;2023-04-25T14:17:12;9.00;99.90
19348;DHT22;9810;52.480;9.806;2023-04-25T14:19:39;9.70;99.90
19348;DHT22;9810;52.480;9.806;2023-04-25T14:22:11;10.20;99.90
19348;DHT22;9810;52.480;9.806;2023-04-25T14:24:39;10.80;99.90
19348;DHT22;9810;52.480;9.806;2023-04-25T14:27:06;11.00;99.90
19348;DHT22;9810;52.480;9.806;2023-04-25T14:29:34;10.80;99.90
19348;DHT22;9810;52.480;9.806;2023-04-25T14:32:03;10.90;99.90
19348;DHT22;9810;52.480;9.806;2023-04-25T14:34:33;11.20;99.90
19348;DHT22;9810;52.480;9.806;2023-04-25T14:37:01;11.50;99.90
19348;DHT22;9810;52.480;9.806;2023-04-25T14:39:28;11.50;99.90
19348;DHT22;9810;52.480;9.806;2023-04-25T14:41:58;11.30;99.90
19348;DHT22;9810;52.480;9.806;2023-04-25T14:44:25;10.60;99.90
19348;DHT22;9810;52.480;9.806;2023-04-25T14:46:55;10.30;99.90
19348;DHT22;9810;52.480;9.806;2023-04-25T14:49:27;8.80;99.90
19348;DHT22;9810;52.480;9.806;2023-04-25T14:51:55;7.90;99.90
19348;DHT22;9810;52.480;9.806;2023-04-25T14:54:23;7.40;99.90
19348;DHT22;9810;52.480;9.806;2023-04-25T14:56:51;7.40;99.90
19348;DHT22;9810;52.480;9.806;2023-04-25T14:59:21;7.60;99.90
19348;DHT22;9810;52.480;9.806;2023-04-25T15:01:49;8.10;99.90
19348;DHT22;9810;52.480;9.806;2023-04-25T15:04:17;8.30;99.90
19348;DHT22;9810;52.480;9.806;2023-04-25T15:06:47;8.30;99.90
19348;DHT22;9810;52.480;9.806;2023-04-25T15:09:14;8.40;99.90
19348;DHT22;9810;52.480;9.806;2023-04-25T15:11:43;8.40;99.90
19348;DHT22;9810;52.480;9.806;2023-04-25T15:14:10;8.50;99.90
19348;DHT22;9810;52.480;9.806;2023-04-25T15:16:37;8.50;99.90
19348;DHT22;9810;52.480;9.806;2023-04-25T15:19:05;8.80;99.90
19348;DHT22;9810;52.480;9.806;2023-04-25T15:21:32;8.60;99.90
19348;DHT22;9810;52.480;9.806;2023-04-25T15:24:01;8.70;99.90
19348;DHT22;9810;52.480;9.806;2023-04-25T15:26:29;9.00;99.90
19348;DHT22;9810;52.480;9.806;2023-04-25T15:28:56;9.20;99.90
19348;DHT22;9810;52.480;9.806;2023-04-25T15:31:24;9.40;99.90
19348;DHT22;9810;52.480;9.806;2023-04-25T15:33:51;9.20;99.90
19348;DHT22;9810;52.480;9.806;2023-04-25T15:36:18;9.00;99.90
19348;DHT22;9810;52.480;9.806;2023-04-25T15:38:47;9.10;99.90
19348;DHT22;9810;52.480;9.806;2023-04-25T15:41:17;9.20;99.90
19348;DHT22;9810;52.480;9.806;2023-04-25T15:43:46;9.00;99.90
19348;DHT22;9810;52.480;9.806;2023-04-25T15:46:14;9.00;99.90
19348;DHT22;9810;52.480;9.806;2023-04-25T15:48:47;8.90;99.90
19348;DHT22;9810;52.480;9.806;2023-04-25T15:51:14;9.00;99.90
19348;DHT22;9810;52.480;9.806;2023-04-25T15:53:45;8.90;99.90
19348;DHT22;9810;52.480;9.806;2023-04-25T15:56:15;9.00;99.90
19348;DHT22;9810;52.480;9.806;2023-04-25T15:58:42;8.70;99.90
19348;DHT22;9810;52.480;9.806;2023-04-25T16:01:10;8.60;99.90
19348;DHT22;9810;52.480;9.806;2023-04-25T16:03:40;8.40;99.90
19348;DHT22;9810;52.480;9.806;2023-04-25T16:06:07;8.30;99.90
19348;DHT22;9810;52.480;9.806;2023-04-25T16:08:35;8.70;99.90
19348;DHT22;9810;52.480;9.806;2023-04-25T16:11:03;9.10;99.90
19348;DHT22;9810;52.480;9.806;2023-04-25T16:13:33;9.10;99.90
19348;DHT22;9810;52.480;9.806;2023-04-25T16:16:00;8.90;99.90
19348;DHT22;9810;52.480;9.806;2023-04-25T16:18:28;8.80;99.90
19348;DHT22;9810;52.480;9.806;2023-04-25T16:20:58;8.90;99.90
19348;DHT22;9810;52.480;9.806;2023-04-25T16:23:26;9.10;99.90
19348;DHT22;9810;52.480;9.806;2023-04-25T16:25:53;9.10;99.90
19348;DHT22;9810;52.480;9.806;2023-04-25T16:28:21;9.00;99.90
19348;DHT22;9810;52.480;9.806;2023-04-25T16:30:51;9.10;99.90
19348;DHT22;9810;52.480;9.806;2023-04-25T16:33:21;9.10;99.90
19348;DHT22;9810;52.480;9.806;2023-04-25T16:35:48;9.00;99.90
19348;DHT22;9810;52.480;9.806;2023-04-25T16:38:17;9.10;99.90
19348;DHT22;9810;52.480;9.806;2023-04-25T16:40:44;9.00;99.90
19348;DHT22;9810;52.480;9.806;2023-04-25T16:43:12;8.80;99.90
19348;DHT22;9810;52.480;9.806;2023-04-25T16:45:41;8.70;99.90
19348;DHT22;9810;52.480;9.806;2023-04-25T16:48:10;8.50;99.90
19348;DHT22;9810;52.480;9.806;2023-04-25T16:50:38;8.60;99.90